Terminal Aerodrome Forecast
Issued by NWS

Home | Current Version | Previous Version | Text Only | Print | Product List | Glossary On
Versions: 1 2 3 4 5 6 7 8 9 10 11 12 13 14 15 16 17 18 19 20 21 22 23 24 25 26 27 28 29 30 31 32
000
FTUS44 KFWD 240712 AAB
TAFAFW
TAF AMD
KAFW 240712Z 2407/2506 07005KT P6SM VCSH SCT030 BKN080
      TEMPO 2407/2408 VRB05KT 3SM SHRA BR BKN035
     FM241200 08006KT P6SM BKN040
      TEMPO 2413/2416 BKN020
     FM241800 08009KT P6SM VCSH BKN060
     FM250300 09009KT P6SM OVC080=

USA.gov is the U.S. government's official web portal to all federal, state and local government web resources and services.